Time;durP1;ratioP1;P1;durP2;ratioP2;P2;SDS_P1;SDS_P2;PMS_P1;PMS_P2;Temp;Humidity;BMP_temperature;BMP_pressure;BME280_temperature;BME280_humidity;BME280_pressure;Samples;Min_cycle;Max_cycle;Signal;HPM_P1;HPM_P2
2022/10/25 04:02:09;;;;;;;2.50;1.03;;;;;;;;;;5139953;23;20502;-79
2022/10/25 04:04:34;;;;;;;2.13;1.00;;;11.60;96.30;;;;;;4944626;29;20505;-79
2022/10/25 04:07:00;;;;;;;3.93;1.93;;;11.60;96.30;;;;;;4954082;28;20406;-79
2022/10/25 04:09:25;;;;;;;2.97;1.07;;;11.50;96.30;;;;;;4954091;29;20654;-78
2022/10/25 04:11:51;;;;;;;5.63;1.30;;;11.40;96.30;;;;;;4968642;28;20201;-78
2022/10/25 04:14:16;;;;;;;4.83;2.30;;;11.30;96.30;;;;;;4974622;28;20174;-79
2022/10/25 04:16:42;;;;;;;4.63;1.70;;;11.30;96.30;;;;;;4974192;28;20549;-78
2022/10/25 04:19:08;;;;;;;2.00;1.23;;;;;;;;;;5001581;28;20172;-75
2022/10/25 04:24:10;;;;;;;4.53;1.73;;;;;;;;;;5469470;23;20518;-75
2022/10/25 04:26:36;;;;;;;16.30;11.17;;;;;;;;;;5017341;28;20447;-75
2022/10/25 04:29:03;;;;;;;1.70;0.90;;;11.30;96.30;;;;;;5008744;28;20447;-77
2022/10/25 04:31:28;;;;;;;3.20;1.40;;;11.20;96.30;;;;;;5027990;28;20577;-78
2022/10/25 04:33:55;;;;;;;8.57;1.10;;;11.20;96.30;;;;;;5014008;28;20434;-78
2022/10/25 04:36:22;;;;;;;2.73;1.17;;;11.20;96.30;;;;;;4995193;28;20548;-78
2022/10/25 04:38:51;;;;;;;2.50;1.00;;;;;;;;;;5012069;28;20975;-77
2022/10/25 04:41:17;;;;;;;2.30;0.93;;;11.20;96.30;;;;;;5012383;28;20476;-78
2022/10/25 04:43:44;;;;;;;3.03;1.30;;;11.20;96.30;;;;;;5023395;28;20514;-76
2022/10/25 04:46:10;;;;;;;4.80;1.30;;;11.30;96.30;;;;;;5032335;28;20418;-77
2022/10/25 04:48:36;;;;;;;8.73;4.10;;;11.30;96.30;;;;;;5014425;28;20436;-76
2022/10/25 04:51:02;;;;;;;10.50;5.30;;;11.30;96.30;;;;;;5032298;28;20200;-76
2022/10/25 04:53:28;;;;;;;6.70;1.83;;;11.20;96.30;;;;;;5014517;28;20423;-76
2022/10/25 04:55:59;;;;;;;7.07;2.13;;;11.10;96.30;;;;;;5032228;28;20419;-78
2022/10/25 04:58:26;;;;;;;2.27;1.20;;;11.10;96.30;;;;;;5031916;28;20183;-77
2022/10/25 05:00:53;;;;;;;4.63;2.80;;;11.00;96.30;;;;;;5002802;28;20547;-77
2022/10/25 05:03:19;;;;;;;3.43;1.50;;;;;;;;;;4994680;28;20426;-78
2022/10/25 05:05:45;;;;;;;5.37;1.33;;;;;;;;;;5012334;28;20454;-78
2022/10/25 05:08:11;;;;;;;12.73;1.83;;;;;;;;;;5011974;28;20887;-78
2022/10/25 05:10:37;;;;;;;2.00;1.03;;;11.10;96.30;;;;;;4994587;28;20967;-78
2022/10/25 05:13:02;;;;;;;2.63;2.17;;;11.00;96.30;;;;;;5012269;28;20502;-77
2022/10/25 05:15:28;;;;;;;7.97;1.50;;;11.10;96.30;;;;;;4995813;28;20637;-78
2022/10/25 05:18:00;;;;;;;6.23;0.90;;;11.10;96.30;;;;;;5015679;28;20184;-78
2022/10/25 05:20:26;;;;;;;2.30;1.30;;;11.20;96.30;;;;;;4994029;28;20452;-77
2022/10/25 05:22:52;;;;;;;5.53;1.40;;;11.20;96.30;;;;;;5016034;28;20490;-76
2022/10/25 05:25:18;;;;;;;2.30;1.20;;;;;;;;;;5016244;28;20864;-76
2022/10/25 05:27:43;;;;;;;2.60;1.30;;;11.30;96.30;;;;;;5014973;28;20173;-76
2022/10/25 05:30:10;;;;;;;5.67;1.10;;;11.40;96.30;;;;;;5015953;28;20415;-76
2022/10/25 05:32:35;;;;;;;2.40;1.00;;;11.40;96.30;;;;;;4998381;28;20663;-76
2022/10/25 05:35:01;;;;;;;3.00;1.07;;;;;;;;;;4998205;28;20424;-76
2022/10/25 05:37:27;;;;;;;2.40;0.73;;;11.50;96.30;;;;;;4996895;28;20215;-76
2022/10/25 05:39:52;;;;;;;5.73;1.33;;;11.50;96.30;;;;;;5015785;28;20177;-77
2022/10/25 05:42:18;;;;;;;3.50;0.97;;;11.50;96.30;;;;;;5015645;28;20213;-76
2022/10/25 05:44:43;;;;;;;6.97;1.27;;;11.60;96.30;;;;;;4998259;28;20220;-76
2022/10/25 05:47:09;;;;;;;4.70;1.10;;;11.60;96.30;;;;;;5014969;28;20177;-75
2022/10/25 05:49:38;;;;;;;3.37;1.00;;;;;;;;;;5015588;28;20215;-75
2022/10/25 05:52:09;;;;;;;1.50;0.80;;;11.60;96.30;;;;;;5009072;28;20225;-75
2022/10/25 05:54:35;;;;;;;3.53;1.20;;;;;;;;;;4983437;28;20451;-75
2022/10/25 05:57:01;;;;;;;6.40;1.13;;;11.70;96.30;;;;;;4994401;28;20419;-75
2022/10/25 05:59:26;;;;;;;4.10;1.33;;;11.90;96.30;;;;;;4994957;28;20511;-75
2022/10/25 06:01:52;;;;;;;4.90;1.13;;;12.10;96.30;;;;;;4977146;28;20217;-75
2022/10/25 06:04:18;;;;;;;6.93;1.30;;;;;;;;;;4994618;28;20224;-76
2022/10/25 06:06:45;;;;;;;4.63;1.10;;;12.70;96.30;;;;;;4994012;28;20236;-76
2022/10/25 06:09:12;;;;;;;4.80;0.93;;;13.00;96.30;;;;;;4977001;28;20416;-76
2022/10/25 06:11:38;;;;;;;3.37;1.10;;;13.30;96.30;;;;;;5012214;28;20804;-76
2022/10/25 06:14:04;;;;;;;3.30;2.20;;;13.20;96.30;;;;;;4996516;28;20415;-76
2022/10/25 06:16:30;;;;;;;7.00;1.47;;;13.20;96.30;;;;;;5014090;28;20427;-75
2022/10/25 06:18:56;;;;;;;2.90;0.80;;;13.50;96.30;;;;;;5013237;28;20965;-75
2022/10/25 06:21:25;;;;;;;3.60;0.80;;;13.40;96.30;;;;;;5013432;28;20459;-77
2022/10/25 06:23:51;;;;;;;8.00;1.20;;;13.10;96.30;;;;;;5013686;28;20656;-75
2022/10/25 06:26:22;;;;;;;3.40;1.40;;;12.90;96.30;;;;;;5013385;28;20438;-76
2022/10/25 06:28:51;;;;;;;2.80;0.93;;;12.70;96.30;;;;;;5013335;28;20818;-75
2022/10/25 06:31:18;;;;;;;3.60;1.30;;;;;;;;;;5013555;28;20490;-76
2022/10/25 06:33:44;;;;;;;2.03;0.90;;;12.40;96.30;;;;;;5014039;28;20496;-75
2022/10/25 06:36:16;;;;;;;3.93;0.97;;;12.40;96.30;;;;;;4996264;28;20773;-76
2022/10/25 06:38:42;;;;;;;4.37;1.00;;;;;;;;;;5004440;28;20423;-78
2022/10/25 06:41:13;;;;;;;2.77;1.03;;;12.30;96.30;;;;;;5015049;28;20479;-75
2022/10/25 06:43:39;;;;;;;3.77;1.10;;;12.30;96.30;;;;;;5020723;28;20917;-76
2022/10/25 06:46:21;;;;;;;2.60;1.10;;;12.40;96.30;;;;;;5034779;28;20415;-75
2022/10/25 06:48:47;;;;;;;8.03;1.50;;;;;;;;;;5020401;28;20223;-75
2022/10/25 06:51:12;;;;;;;5.93;1.07;;;12.30;96.30;;;;;;5014507;28;20430;-75
2022/10/25 06:53:38;;;;;;;2.40;1.07;;;12.40;96.30;;;;;;5014579;28;20523;-76
2022/10/25 06:56:05;;;;;;;3.73;0.93;;;;;;;;;;4999973;28;20271;-76
2022/10/25 06:58:31;;;;;;;2.13;0.80;;;;;;;;;;5033658;28;20176;-74
2022/10/25 07:01:05;;;;;;;2.33;0.90;;;;;;;;;;5033943;28;20980;-75
2022/10/25 07:03:33;;;;;;;4.80;1.60;;;12.50;96.30;;;;;;5034195;28;20410;-75
2022/10/25 07:06:11;;;;;;;2.73;0.90;;;12.50;96.30;;;;;;5016445;28;20419;-74
2022/10/25 07:08:38;;;;;;;2.50;0.80;;;12.50;96.30;;;;;;5015659;28;20790;-74
2022/10/25 07:11:04;;;;;;;2.97;1.00;;;12.50;96.30;;;;;;5033984;28;20434;-75
2022/10/25 07:13:32;;;;;;;2.33;1.03;;;12.50;96.30;;;;;;5027627;28;20428;-75
2022/10/25 07:16:05;;;;;;;3.47;1.00;;;12.70;96.30;;;;;;5014235;28;20416;-75
2022/10/25 07:18:32;;;;;;;2.10;0.83;;;12.80;96.30;;;;;;5013554;28;20420;-75
2022/10/25 07:21:15;;;;;;;6.00;0.80;;;12.80;96.30;;;;;;5013890;28;20551;-75
2022/10/25 07:23:41;;;;;;;4.40;1.10;;;12.70;96.30;;;;;;5013776;28;20916;-75
2022/10/25 07:26:19;;;;;;;6.70;0.93;;;12.60;96.30;;;;;;5013929;28;20970;-74
2022/10/25 07:28:46;;;;;;;2.57;1.10;;;12.70;96.30;;;;;;5013533;28;20415;-76
2022/10/25 07:31:13;;;;;;;4.43;0.90;;;12.80;96.30;;;;;;5013804;28;20443;-75
2022/10/25 07:33:39;;;;;;;6.43;1.30;;;12.90;96.30;;;;;;5013799;28;20424;-74
2022/10/25 07:36:05;;;;;;;5.07;1.00;;;12.90;96.30;;;;;;5013782;28;20412;-76
2022/10/25 07:38:31;;;;;;;1.87;0.73;;;13.10;96.30;;;;;;5012289;28;20185;-75
2022/10/25 07:40:57;;;;;;;4.10;1.10;;;13.20;96.30;;;;;;5013530;28;20526;-74
2022/10/25 07:43:27;;;;;;;1.70;0.90;;;13.10;96.30;;;;;;4995957;28;20192;-75
2022/10/25 07:45:53;;;;;;;3.27;1.03;;;13.10;96.30;;;;;;5013750;28;20419;-74
2022/10/25 07:48:19;;;;;;;4.73;1.10;;;13.20;96.30;;;;;;5024727;28;20445;-75
2022/10/25 07:50:45;;;;;;;6.33;1.60;;;;;;;;;;5033156;28;20526;-75
2022/10/25 07:53:13;;;;;;;1.97;0.77;;;13.20;96.30;;;;;;5032984;28;20498;-75
2022/10/25 07:55:39;;;;;;;7.43;1.17;;;;;;;;;;5015507;28;20266;-74
2022/10/25 07:58:06;;;;;;;2.97;1.40;;;13.50;96.30;;;;;;5032499;28;20863;-74
2022/10/25 08:00:34;;;;;;;5.60;0.80;;;13.60;96.30;;;;;;5032898;28;20964;-75
2022/10/25 08:02:59;;;;;;;3.90;1.07;;;13.70;96.30;;;;;;5032903;28;20407;-75
2022/10/25 08:05:25;;;;;;;4.00;1.43;;;13.60;96.30;;;;;;5032945;28;20418;-75
2022/10/25 08:07:51;;;;;;;4.83;1.13;;;13.60;96.30;;;;;;5032350;28;20211;-74
2022/10/25 08:10:20;;;;;;;2.83;0.93;;;13.60;96.30;;;;;;5014983;28;20172;-75
2022/10/25 08:12:47;;;;;;;3.30;1.10;;;13.70;96.30;;;;;;5032867;28;20203;-75
2022/10/25 08:15:13;;;;;;;3.27;1.03;;;13.80;96.30;;;;;;5032720;28;20922;-75
2022/10/25 08:17:39;;;;;;;7.60;1.23;;;13.60;96.30;;;;;;5032205;28;20411;-75
2022/10/25 08:20:05;;;;;;;4.67;1.00;;;13.90;96.30;;;;;;5032883;28;20235;-75
2022/10/25 08:22:30;;;;;;;4.20;0.90;;;13.90;96.30;;;;;;5032064;28;20267;-75
2022/10/25 08:24:56;;;;;;;6.40;1.30;;;13.80;96.30;;;;;;5002914;28;20212;-75
2022/10/25 08:27:21;;;;;;;3.57;1.23;;;14.00;96.30;;;;;;4994685;28;20175;-76
2022/10/25 08:29:47;;;;;;;4.43;1.20;;;;;;;;;;5011473;28;20528;-76
2022/10/25 08:32:13;;;;;;;2.70;0.90;;;14.50;96.30;;;;;;4993182;28;20203;-76
2022/10/25 08:34:39;;;;;;;6.03;0.90;;;14.60;96.30;;;;;;4993668;28;21015;-76
2022/10/25 08:37:05;;;;;;;5.67;0.97;;;;;;;;;;4992425;28;20186;-76
2022/10/25 08:39:31;;;;;;;2.23;1.00;;;14.50;96.30;;;;;;4974935;28;20211;-76
2022/10/25 08:41:59;;;;;;;7.53;1.00;;;14.30;96.30;;;;;;4976314;28;20547;-76
2022/10/25 08:44:44;;;;;;;6.03;0.80;;;14.20;96.30;;;;;;4993775;28;20186;-76
2022/10/25 08:47:21;;;;;;;4.80;0.90;;;14.20;96.30;;;;;;4993076;28;20407;-76
2022/10/25 08:49:46;;;;;;;3.30;0.80;;;14.30;96.30;;;;;;4993862;28;20408;-76
2022/10/25 08:52:26;;;;;;;5.97;1.30;;;14.40;96.30;;;;;;4993840;28;20441;-76
2022/10/25 08:54:54;;;;;;;5.03;1.00;;;14.50;96.30;;;;;;4993542;28;20169;-76
2022/10/25 08:57:24;;;;;;;4.50;0.90;;;14.40;96.30;;;;;;4975482;28;20503;-76
2022/10/25 09:00:12;;;;;;;2.30;0.80;;;14.30;96.30;;;;;;4976037;28;20424;-76
2022/10/25 09:02:58;;;;;;;1.67;0.60;;;;;;;;;;4993666;28;20547;-76
2022/10/25 09:05:35;;;;;;;6.07;0.73;;;14.10;96.30;;;;;;4993230;28;20537;-76
2022/10/25 09:08:18;;;;;;;5.27;1.20;;;14.00;96.30;;;;;;4992602;28;20404;-75
2022/10/25 09:10:52;;;;;;;5.43;0.80;;;14.10;96.30;;;;;;4991323;28;20428;-75
2022/10/25 09:13:46;;;;;;;1.57;0.70;;;14.20;96.30;;;;;;4975689;28;20937;-75
2022/10/25 09:16:26;;;;;;;4.43;0.90;;;14.30;96.30;;;;;;4975269;28;20940;-75
2022/10/25 09:18:53;;;;;;;3.47;0.90;;;14.30;96.30;;;;;;4991119;28;20416;-75
2022/10/25 09:21:45;;;;;;;3.23;0.87;;;14.50;96.30;;;;;;4991993;28;20464;-76
2022/10/25 09:24:19;;;;;;;4.63;0.83;;;14.90;96.30;;;;;;4963579;28;20440;-75
2022/10/25 09:27:06;;;;;;;3.43;1.67;;;15.30;96.30;;;;;;4993693;28;20473;-74
2022/10/25 09:29:47;;;;;;;4.33;1.00;;;15.40;96.30;;;;;;4994315;28;20905;-76
2022/10/25 09:32:23;;;;;;;6.60;1.20;;;15.50;96.30;;;;;;4994261;28;20441;-76
2022/10/25 09:34:49;;;;;;;2.30;0.77;;;15.70;96.30;;;;;;4995476;28;20420;-75
2022/10/25 09:37:44;;;;;;;3.60;1.00;;;15.50;96.30;;;;;;4977094;28;20491;-75
2022/10/25 09:40:16;;;;;;;5.17;0.90;;;14.90;96.30;;;;;;4991014;28;20928;-75
2022/10/25 09:42:55;;;;;;;4.40;1.20;;;;;;;;;;4975804;28;21008;-75
2022/10/25 09:45:27;;;;;;;1.97;0.80;;;14.80;96.30;;;;;;4993385;28;20496;-75
2022/10/25 09:48:06;;;;;;;6.23;0.80;;;14.80;96.30;;;;;;4992334;28;20428;-75
2022/10/25 09:50:42;;;;;;;5.07;1.50;;;14.70;96.30;;;;;;4992724;28;20424;-75
2022/10/25 09:53:16;;;;;;;2.13;1.20;;;14.60;96.30;;;;;;4974954;28;20416;-75
2022/10/25 09:55:55;;;;;;;2.87;0.97;;;;;;;;;;4974968;28;20425;-76
2022/10/25 09:58:27;;;;;;;2.87;1.00;;;14.60;96.30;;;;;;4992596;28;20401;-75
2022/10/25 10:00:55;;;;;;;2.53;1.37;;;14.40;96.30;;;;;;4996512;28;21321;-75
2022/10/25 10:03:26;;;;;;;10.77;1.20;;;14.30;96.30;;;;;;5014939;28;20491;-74
2022/10/25 10:05:55;;;;;;;3.00;1.17;;;14.20;96.30;;;;;;4997189;28;20442;-75
2022/10/25 10:08:22;;;;;;;3.57;1.00;;;14.20;96.30;;;;;;5015074;28;20431;-75
2022/10/25 10:10:49;;;;;;;3.30;0.90;;;;;;;;;;5014358;28;20440;-76
2022/10/25 10:13:20;;;;;;;6.20;1.13;;;;;;;;;;4996815;28;20759;-75
2022/10/25 10:15:56;;;;;;;2.17;0.80;;;14.40;96.30;;;;;;4996734;28;21072;-75
2022/10/25 10:18:28;;;;;;;7.13;1.30;;;14.50;96.30;;;;;;5013066;28;20425;-74
2022/10/25 10:21:21;;;;;;;1.53;0.70;;;;;;;;;;4996878;28;20478;-75
2022/10/25 10:23:58;;;;;;;2.20;0.87;;;14.30;96.30;;;;;;5011521;28;20470;-75
2022/10/25 10:26:43;;;;;;;1.90;0.80;;;;;;;;;;5014377;28;20772;-75
2022/10/25 10:29:09;;;;;;;10.30;1.50;;;;;;;;;;5014302;28;20447;-74
2022/10/25 10:31:39;;;;;;;2.50;0.90;;;;;;;;;;5012898;28;20541;-73
2022/10/25 10:34:07;;;;;;;3.90;1.07;;;;;;;;;;5012927;28;20185;-73
2022/10/25 10:36:34;;;;;;;4.70;1.50;;;;;;;;;;5012461;28;20435;-73
2022/10/25 10:39:18;;;;;;;4.00;1.17;;;;;;;;;;5011955;28;20775;-73
2022/10/25 10:42:02;;;;;;;1.50;0.77;;;14.30;96.30;;;;;;5012522;28;20509;-73
2022/10/25 10:44:34;;;;;;;2.13;0.90;;;14.10;96.30;;;;;;5012474;28;20408;-73
2022/10/25 10:47:08;;;;;;;3.40;1.10;;;14.20;96.30;;;;;;5012817;28;20498;-73
2022/10/25 10:49:37;;;;;;;2.17;1.13;;;14.30;96.30;;;;;;5012376;28;20440;-73
2022/10/25 10:52:04;;;;;;;6.40;1.07;;;14.60;96.30;;;;;;5012193;28;20544;-73
2022/10/25 10:54:33;;;;;;;2.93;0.93;;;14.60;96.30;;;;;;5012115;28;20411;-73
2022/10/25 10:57:04;;;;;;;2.87;0.90;;;14.80;96.30;;;;;;4994549;28;20438;-73
2022/10/25 10:59:51;;;;;;;4.83;1.47;;;;;;;;;;5012471;28;20424;-73
2022/10/25 11:02:36;;;;;;;14.50;1.20;;;14.80;96.30;;;;;;4996091;28;20530;-73
2022/10/25 11:05:02;;;;;;;1.63;0.80;;;;;;;;;;4987249;28;20436;-73
2022/10/25 11:07:34;;;;;;;3.63;1.10;;;15.10;96.30;;;;;;5005031;28;20473;-74
2022/10/25 11:10:15;;;;;;;5.80;1.07;;;15.00;96.30;;;;;;5015449;28;20244;-73
2022/10/25 11:12:41;;;;;;;3.27;1.10;;;15.00;96.30;;;;;;4993445;28;20409;-73
2022/10/25 11:15:14;;;;;;;1.93;0.60;;;15.10;96.30;;;;;;5007560;28;20429;-73
2022/10/25 11:17:48;;;;;;;2.60;1.17;;;15.10;96.30;;;;;;5033207;28;20411;-73
2022/10/25 11:20:17;;;;;;;3.97;1.03;;;15.10;96.30;;;;;;5033825;28;20415;-73
2022/10/25 11:23:06;;;;;;;2.60;0.90;;;15.10;96.30;;;;;;5033746;28;20455;-74
2022/10/25 11:25:57;;;;;;;5.70;1.20;;;15.90;96.30;;;;;;4994109;28;20959;-73
2022/10/25 11:28:42;;;;;;;3.13;0.90;;;;;;;;;;4993695;28;20485;-74
2022/10/25 11:31:11;;;;;;;4.30;1.33;;;;;;;;;;4994082;28;20424;-73
2022/10/25 11:33:37;;;;;;;6.70;1.10;;;;;;;;;;4993803;28;20397;-74
2022/10/25 11:36:24;;;;;;;2.00;1.30;;;16.50;96.30;;;;;;4993889;28;20877;-73
2022/10/25 11:39:13;;;;;;;12.73;1.40;;;;;;;;;;4993414;28;20228;-74
2022/10/25 11:41:52;;;;;;;2.43;0.90;;;16.30;96.30;;;;;;5022360;28;20517;-73
2022/10/25 11:44:40;;;;;;;6.30;1.30;;;15.70;96.30;;;;;;5015378;28;20429;-73
2022/10/25 11:47:27;;;;;;;3.47;1.00;;;15.70;96.30;;;;;;5032544;28;20423;-74
2022/10/25 11:50:05;;;;;;;5.27;1.00;;;;;;;;;;5033282;28;20415;-73
2022/10/25 11:52:38;;;;;;;5.27;1.30;;;15.40;96.30;;;;;;5015161;28;20492;-73
2022/10/25 11:55:19;;;;;;;4.60;0.90;;;;;;;;;;5033155;28;20498;-73
2022/10/25 11:58:04;;;;;;;3.70;1.03;;;;;;;;;;5032510;28;20415;-73
2022/10/25 12:00:57;;;;;;;5.03;1.40;;;15.50;96.30;;;;;;5032881;28;20498;-73
2022/10/25 12:03:26;;;;;;;5.20;1.20;;;;;;;;;;5032952;28;20415;-73
2022/10/25 12:06:05;;;;;;;7.70;0.90;;;;;;;;;;5015171;28;20411;-73
2022/10/25 12:08:50;;;;;;;7.97;1.20;;;;;;;;;;5032204;28;20410;-73
2022/10/25 12:11:18;;;;;;;3.80;1.30;;;;;;;;;;5014874;28;20426;-73
2022/10/25 12:13:52;;;;;;;1.80;1.00;;;15.90;96.30;;;;;;5032768;28;20417;-73
2022/10/25 12:16:20;;;;;;;2.90;0.80;;;15.80;96.30;;;;;;5014336;28;20412;-73
2022/10/25 12:18:48;;;;;;;4.50;1.00;;;15.80;96.30;;;;;;4994705;28;20482;-73
2022/10/25 12:21:34;;;;;;;1.87;1.00;;;;;;;;;;5012731;28;20464;-73
2022/10/25 12:24:01;;;;;;;4.97;1.00;;;15.90;96.30;;;;;;5012457;28;20431;-73
2022/10/25 12:26:39;;;;;;;7.77;1.40;;;16.00;96.30;;;;;;5012995;28;20927;-74
2022/10/25 12:29:06;;;;;;;1.70;0.80;;;;;;;;;;5012583;28;20416;-74
2022/10/25 12:31:39;;;;;;;1.47;0.80;;;16.00;96.30;;;;;;5012472;28;20435;-73
2022/10/25 12:34:25;;;;;;;1.87;0.77;;;15.90;96.30;;;;;;5012636;28;20428;-73
2022/10/25 12:36:52;;;;;;;3.73;1.07;;;;;;;;;;4994326;28;20423;-72
2022/10/25 12:39:20;;;;;;;5.47;1.10;;;15.90;96.30;;;;;;5012539;28;20411;-73
2022/10/25 12:41:51;;;;;;;1.87;0.80;;;15.60;96.30;;;;;;4994749;28;20554;-73
2022/10/25 12:44:41;;;;;;;4.37;0.93;;;15.60;96.30;;;;;;5012452;28;20523;-73
2022/10/25 12:47:26;;;;;;;3.27;0.80;;;15.80;96.30;;;;;;5011653;28;20955;-73
2022/10/25 12:50:13;;;;;;;3.07;2.40;;;15.90;96.30;;;;;;5012767;28;20756;-73
2022/10/25 12:53:20;;;;;;;4.90;1.27;;;15.90;96.30;;;;;;5012431;28;20412;-73
2022/10/25 12:56:22;;;;;;;3.93;0.70;;;15.80;96.30;;;;;;4981892;28;20423;-74
2022/10/25 12:59:08;;;;;;;3.70;0.87;;;15.60;96.30;;;;;;4994156;28;20423;-74
2022/10/25 13:02:02;;;;;;;3.00;0.97;;;15.40;96.30;;;;;;5012274;28;20782;-73
2022/10/25 13:04:52;;;;;;;1.47;0.67;;;15.40;96.30;;;;;;5012162;28;20408;-73
2022/10/25 13:07:19;;;;;;;4.13;1.10;;;15.50;96.30;;;;;;5011688;28;20847;-73
2022/10/25 13:09:45;;;;;;;6.93;1.20;;;15.30;96.30;;;;;;5012180;28;20434;-73
2022/10/25 13:12:29;;;;;;;4.73;1.13;;;;;;;;;;5012182;28;20931;-73
2022/10/25 13:14:57;;;;;;;3.23;1.03;;;15.20;96.30;;;;;;5019136;28;20233;-73
2022/10/25 13:17:22;;;;;;;2.77;0.90;;;15.50;96.30;;;;;;5031186;28;20442;-73
2022/10/25 13:19:51;;;;;;;2.40;0.70;;;;;;;;;;5031848;28;20438;-73
2022/10/25 13:22:39;;;;;;;2.53;0.90;;;16.10;96.30;;;;;;5031707;28;20298;-73
2022/10/25 13:25:07;;;;;;;5.70;1.00;;;16.40;96.30;;;;;;5031925;28;21081;-73
2022/10/25 13:27:35;;;;;;;5.23;1.00;;;16.10;96.30;;;;;;5031154;28;20403;-73
2022/10/25 13:30:07;;;;;;;1.50;0.80;;;;;;;;;;5031823;28;20515;-73
2022/10/25 13:32:40;;;;;;;4.63;1.07;;;15.60;96.30;;;;;;5031374;28;20509;-73
2022/10/25 13:35:19;;;;;;;5.57;1.17;;;;;;;;;;5031987;28;20782;-73
2022/10/25 13:37:53;;;;;;;5.70;1.10;;;15.70;96.30;;;;;;5034161;28;20402;-73
2022/10/25 13:40:18;;;;;;;2.40;0.90;;;15.50;96.30;;;;;;5017818;28;20423;-73
2022/10/25 13:42:46;;;;;;;2.70;1.00;;;15.50;96.30;;;;;;5035428;28;20461;-73
2022/10/25 13:45:29;;;;;;;2.07;0.90;;;15.40;96.30;;;;;;5035499;28;20222;-75
2022/10/25 13:47:55;;;;;;;5.40;0.93;;;15.10;96.30;;;;;;5034867;28;20413;-75
2022/10/25 13:50:26;;;;;;;3.57;1.30;;;15.20;96.30;;;;;;5035278;28;20414;-75
2022/10/25 13:52:55;;;;;;;5.20;0.90;;;15.30;96.30;;;;;;5035451;28;20431;-75
2022/10/25 13:55:23;;;;;;;3.87;0.93;;;15.30;96.30;;;;;;5017511;28;20422;-75
2022/10/25 13:57:56;;;;;;;2.10;1.10;;;15.60;96.30;;;;;;5034794;28;20469;-75
2022/10/25 14:00:34;;;;;;;5.90;1.30;;;15.70;96.30;;;;;;5035125;28;20415;-75
2022/10/25 14:03:09;;;;;;;3.47;1.00;;;15.70;96.30;;;;;;5035174;28;20482;-74
2022/10/25 14:05:53;;;;;;;4.57;1.87;;;15.80;96.30;;;;;;5034959;28;20416;-75
2022/10/25 14:08:24;;;;;;;3.93;1.73;;;15.90;96.30;;;;;;5034435;28;20399;-75
2022/10/25 14:10:51;;;;;;;3.50;1.20;;;16.10;96.30;;;;;;5034943;28;20423;-76
2022/10/25 14:13:54;;;;;;;3.30;1.57;;;16.30;96.30;;;;;;5034956;28;20419;-76
2022/10/25 14:16:25;;;;;;;4.37;1.10;;;16.50;96.30;;;;;;5015794;28;20430;-76
2022/10/25 14:18:53;;;;;;;4.17;1.47;;;16.30;96.30;;;;;;5014504;28;20488;-76
2022/10/25 14:21:19;;;;;;;3.23;1.23;;;16.10;96.30;;;;;;5014923;28;20478;-76
2022/10/25 14:23:48;;;;;;;2.80;1.20;;;16.00;96.30;;;;;;5015041;28;20435;-76
2022/10/25 14:26:15;;;;;;;2.97;1.10;;;15.70;96.30;;;;;;5013978;28;20208;-76
2022/10/25 14:28:41;;;;;;;1.90;0.80;;;;;;;;;;5013657;28;20411;-76
2022/10/25 14:31:11;;;;;;;3.07;0.90;;;;;;;;;;5014644;28;21013;-76
2022/10/25 14:33:41;;;;;;;2.53;1.00;;;;;;;;;;5014499;28;20506;-76
2022/10/25 14:36:27;;;;;;;4.97;1.57;;;14.50;96.30;;;;;;4997053;28;20426;-76
2022/10/25 14:38:53;;;;;;;2.70;1.00;;;;;;;;;;5013703;28;20474;-76
2022/10/25 14:41:21;;;;;;;3.07;1.17;;;14.30;96.30;;;;;;5014512;28;20464;-76
2022/10/25 14:43:47;;;;;;;2.77;1.00;;;;;;;;;;5014356;28;20232;-76
2022/10/25 14:46:15;;;;;;;5.33;1.37;;;14.20;96.30;;;;;;5013978;28;20514;-76
2022/10/25 14:48:42;;;;;;;3.43;1.07;;;;;;;;;;5013592;28;20422;-76
2022/10/25 14:51:11;;;;;;;2.83;1.00;;;;;;;;;;5014215;28;20443;-76
2022/10/25 14:53:46;;;;;;;4.50;1.00;;;;;;;;;;5014517;28;20408;-76
2022/10/25 14:56:20;;;;;;;6.00;1.20;;;13.90;96.30;;;;;;5014497;28;20404;-76
2022/10/25 14:58:46;;;;;;;2.43;0.90;;;;;;;;;;5013806;28;20495;-77
2022/10/25 15:01:12;;;;;;;2.60;1.30;;;;;;;;;;5012208;28;20550;-77
2022/10/25 15:03:40;;;;;;;4.67;1.30;;;;;;;;;;5013668;28;20404;-76
2022/10/25 15:06:06;;;;;;;7.53;1.73;;;;;;;;;;5013099;28;20420;-77
2022/10/25 15:08:36;;;;;;;2.23;0.90;;;14.00;96.30;;;;;;4989548;28;20431;-76
2022/10/25 15:11:05;;;;;;;4.20;1.10;;;13.90;96.30;;;;;;5007647;28;20510;-77
2022/10/25 15:13:36;;;;;;;10.73;4.40;;;13.90;96.30;;;;;;4978560;28;20429;-77
2022/10/25 15:16:22;;;;;;;5.00;1.80;;;13.90;96.30;;;;;;4993920;28;20962;-74
2022/10/25 15:19:03;;;;;;;3.60;2.27;;;13.80;96.30;;;;;;5013926;28;20773;-78
2022/10/25 15:21:49;;;;;;;4.00;1.00;;;13.70;96.30;;;;;;4999687;28;20920;-78
2022/10/25 15:24:22;;;;;;;1.83;1.00;;;13.60;96.30;;;;;;5000547;28;20937;-78
2022/10/25 15:26:56;;;;;;;2.90;1.30;;;13.50;96.30;;;;;;5001284;28;20899;-76
2022/10/25 15:29:44;;;;;;;3.23;1.10;;;;;;;;;;5012151;28;20427;-77
2022/10/25 15:32:14;;;;;;;5.33;1.10;;;13.30;96.30;;;;;;5000699;28;20444;-77
2022/10/25 15:34:43;;;;;;;3.10;1.33;;;13.20;96.30;;;;;;5005128;28;20434;-76
2022/10/25 15:37:10;;;;;;;3.63;1.60;;;;;;;;;;5008618;23;20556;-77
2022/10/25 15:39:36;;;;;;;5.40;1.93;;;;;;;;;;5013398;28;20930;-77
2022/10/25 15:42:02;;;;;;;8.77;4.67;;;12.70;96.30;;;;;;5006306;28;20467;-76
2022/10/25 15:44:27;;;;;;;13.60;8.80;;;12.60;96.30;;;;;;5004635;28;20177;-78
2022/10/25 15:46:53;;;;;;;14.30;8.63;;;12.60;96.30;;;;;;5011596;28;20180;-77
2022/10/25 15:49:18;;;;;;;6.17;4.17;;;12.50;96.30;;;;;;5013694;28;20219;-77
2022/10/25 15:51:44;;;;;;;6.37;2.77;;;12.30;96.30;;;;;;5013053;28;20569;-77
2022/10/25 15:54:21;;;;;;;3.80;1.90;;;12.30;96.30;;;;;;5013518;28;20188;-78
2022/10/25 15:56:47;;;;;;;2.70;1.53;;;12.10;96.30;;;;;;5013032;28;20640;-77
2022/10/25 15:59:14;;;;;;;1.83;1.20;;;12.00;96.30;;;;;;5012968;28;20419;-78
2022/10/25 16:04:24;;;;;;;2.90;1.50;;;11.60;96.30;;;;;;5372909;23;21025;-77
2022/10/25 16:06:50;;;;;;;3.73;1.40;;;;;;;;;;5023086;28;20426;-77
2022/10/25 16:09:15;;;;;;;4.27;2.53;;;11.20;96.30;;;;;;4995334;28;20420;-77
2022/10/25 16:11:47;;;;;;;6.33;1.70;;;11.00;96.30;;;;;;5022378;28;20449;-76
2022/10/25 16:14:21;;;;;;;2.33;1.30;;;10.90;96.30;;;;;;5015112;28;20215;-76
2022/10/25 16:16:48;;;;;;;3.27;1.57;;;10.90;96.30;;;;;;5014236;28;20860;-77
2022/10/25 16:19:18;;;;;;;6.83;2.40;;;10.90;96.30;;;;;;5014940;28;20442;-77
2022/10/25 16:21:44;;;;;;;2.30;1.33;;;10.90;96.30;;;;;;5032710;28;20462;-77
2022/10/25 16:24:10;;;;;;;3.67;1.40;;;10.80;96.30;;;;;;5024169;28;20403;-80
2022/10/25 16:26:42;;;;;;;4.60;2.43;;;10.70;96.30;;;;;;5040544;28;20461;-79
2022/10/25 16:29:17;;;;;;;4.90;2.20;;;10.70;96.30;;;;;;5056877;28;20447;-79
2022/10/25 16:31:43;;;;;;;5.63;1.50;;;10.60;96.30;;;;;;5057834;28;20446;-78
2022/10/25 16:34:09;;;;;;;14.47;1.43;;;10.50;96.30;;;;;;5044940;28;20410;-75
2022/10/25 16:36:34;;;;;;;3.20;1.50;;;10.30;96.30;;;;;;5014722;28;20195;-79
2022/10/25 16:39:00;;;;;;;2.63;1.40;;;10.20;96.30;;;;;;5014582;28;20415;-76
2022/10/25 16:41:28;;;;;;;5.03;1.83;;;10.20;96.30;;;;;;5032256;28;20279;-77
2022/10/25 16:43:54;;;;;;;3.87;2.30;;;10.30;96.30;;;;;;5032398;28;20552;-76
2022/10/25 16:46:20;;;;;;;4.67;1.97;;;10.30;96.30;;;;;;5031337;28;20407;-76
2022/10/25 16:48:47;;;;;;;3.23;1.97;;;10.20;96.30;;;;;;5031214;28;20416;-77
2022/10/25 16:51:14;;;;;;;5.20;4.27;;;10.20;96.30;;;;;;5031039;28;20449;-76
2022/10/25 16:53:40;;;;;;;6.13;2.87;;;10.10;96.30;;;;;;5032189;28;20423;-75
2022/10/25 16:56:07;;;;;;;6.40;3.03;;;10.00;96.30;;;;;;5032391;28;20823;-76
2022/10/25 16:58:33;;;;;;;2.70;1.60;;;;;;;;;;5030349;28;20462;-77
2022/10/25 17:00:59;;;;;;;3.77;2.27;;;10.10;96.30;;;;;;5031614;28;20467;-78
2022/10/25 17:03:25;;;;;;;4.37;2.40;;;;;;;;;;5026456;28;20529;-77
2022/10/25 17:05:51;;;;;;;4.77;2.67;;;;;;;;;;5031918;28;20407;-77
2022/10/25 17:08:17;;;;;;;15.33;9.07;;;10.00;96.30;;;;;;5031393;28;20172;-77
2022/10/25 17:10:43;;;;;;;24.73;15.40;;;10.00;96.30;;;;;;5029722;28;20860;-77
2022/10/25 17:13:14;;;;;;;10.23;6.47;;;10.00;96.30;;;;;;5031485;28;21199;-78
2022/10/25 17:15:40;;;;;;;8.83;6.90;;;10.00;96.30;;;;;;5013782;28;20419;-77
2022/10/25 17:18:05;;;;;;;8.67;2.77;;;10.10;96.30;;;;;;5020623;28;20436;-78
2022/10/25 17:20:31;;;;;;;5.43;2.40;;;10.20;96.30;;;;;;5027661;28;20240;-78
2022/10/25 17:22:56;;;;;;;10.50;3.70;;;10.20;96.30;;;;;;5013981;28;20207;-78
2022/10/25 17:25:22;;;;;;;5.90;3.10;;;10.30;96.30;;;;;;5031803;28;20183;-78
2022/10/25 17:27:51;;;;;;;6.20;2.93;;;10.30;96.30;;;;;;5030771;28;20172;-78
2022/10/25 17:30:18;;;;;;;7.90;5.93;;;10.40;96.30;;;;;;5031760;28;20172;-78
2022/10/25 17:32:44;;;;;;;6.60;4.57;;;10.40;96.30;;;;;;5031681;28;20445;-78
2022/10/25 17:35:10;;;;;;;68.50;42.23;;;10.50;96.30;;;;;;5031120;28;20431;-79
2022/10/25 17:37:38;;;;;;;58.43;42.17;;;10.70;96.30;;;;;;5025247;28;20633;-79